Time;durP1;ratioP1;P1;durP2;ratioP2;P2;SDS_P1;SDS_P2;PMS_P1;PMS_P2;Temp;Humidity;BMP_temperature;BMP_pressure;BME280_temperature;BME280_humidity;BME280_pressure;Samples;Min_cycle;Max_cycle;Signal;HPM_P1;HPM_P2
2024/01/09 00:00:45;;;;;;;128.05;6.93;;;;;;;20.39;48.57;101195.06;7290172;19;129605;-39
2024/01/09 00:03:11;;;;;;;275.80;12.35;;;;;;;20.23;49.12;101177.81;7286050;19;129684;-40
2024/01/09 00:05:36;;;;;;;204.48;9.88;;;;;;;20.40;49.02;101201.09;7290970;19;130627;-40
2024/01/09 00:08:01;;;;;;;191.75;8.52;;;;;;;20.43;48.86;101208.75;7289160;19;131853;-43
2024/01/09 00:10:27;;;;;;;154.63;7.45;;;;;;;20.36;48.88;101199.63;7295801;19;129626;-38
2024/01/09 00:12:52;;;;;;;387.75;17.23;;;;;;;20.37;49.15;101201.31;7295394;19;129222;-39
2024/01/09 00:15:18;;;;;;;224.77;10.35;;;;;;;20.40;48.92;101201.09;7298610;19;130093;-39
2024/01/09 00:17:43;;;;;;;194.20;8.97;;;;;;;20.36;49.26;101200.44;7296812;19;130434;-39
2024/01/09 00:20:10;;;;;;;200.23;9.40;;;;;;;20.36;48.67;101197.03;7296215;19;129802;-39
2024/01/09 00:22:35;;;;;;;303.95;13.25;;;;;;;20.35;48.61;101197.94;7296397;19;130507;-39
2024/01/09 00:25:00;;;;;;;206.10;9.85;;;;;;;20.33;48.87;101194.56;7297786;19;130773;-39
2024/01/09 00:27:26;;;;;;;180.73;8.80;;;;;;;20.38;48.74;101200.34;7295142;19;129957;-38
2024/01/09 00:29:51;;;;;;;227.25;11.30;;;;;;;20.34;49.11;101196.28;7296498;19;130457;-38
2024/01/09 00:32:16;;;;;;;293.80;12.93;;;;;;;20.20;48.99;101173.59;7296823;19;129322;-39
2024/01/09 00:34:42;;;;;;;188.20;9.05;;;;;;;20.33;48.70;101194.56;7296473;19;129250;-39
2024/01/09 00:37:07;;;;;;;197.70;9.13;;;;;;;20.15;49.14;101174.78;7294622;19;130291;-39
2024/01/09 00:39:33;;;;;;;241.32;10.77;;;;;;;20.33;48.99;101202.41;7296570;19;129545;-38
2024/01/09 00:41:58;;;;;;;235.57;11.38;;;;;;;20.33;48.93;101199.78;7297772;19;129508;-38
2024/01/09 00:44:23;;;;;;;216.10;10.30;;;;;;;20.33;49.02;101200.66;7296386;19;130510;-38
2024/01/09 00:46:48;;;;;;;249.57;11.05;;;;;;;20.35;48.87;101197.94;7292610;19;130292;-38
2024/01/09 00:49:14;;;;;;;220.68;9.98;;;;;;;20.32;48.62;101198.97;7296999;19;129381;-39
2024/01/09 00:51:39;;;;;;;210.30;9.95;;;;;;;20.36;48.60;101202.25;7297720;19;129819;-38
2024/01/09 00:54:05;;;;;;;190.13;8.60;;;;;;;20.35;48.95;101198.78;7294495;19;130119;-39
2024/01/09 00:56:30;;;;;;;194.60;9.38;;;;;;;20.32;49.00;101203.34;7294159;19;131766;-39
2024/01/09 00:58:55;;;;;;;280.70;12.73;;;;;;;20.28;49.43;101201.88;7296766;19;131052;-39
2024/01/09 01:01:21;;;;;;;230.35;11.15;;;;;;;20.32;49.48;101203.34;7297027;19;129786;-39
2024/01/09 01:03:46;;;;;;;119.35;6.53;;;;;;;20.25;49.96;101202.03;7293061;19;130130;-38
2024/01/09 01:06:11;;;;;;;220.02;10.45;;;;;;;20.25;48.71;101202.03;7293113;19;130381;-38
2024/01/09 01:08:37;;;;;;;226.00;10.57;;;;;;;20.28;49.04;101207.09;7291226;19;129487;-38
2024/01/09 01:11:03;;;;;;;204.68;10.05;;;;;;;20.31;49.18;101212.13;7296011;19;130244;-39
2024/01/09 01:13:30;;;;;;;224.63;9.95;;;;;;;20.33;49.32;101216.31;7294624;19;131213;-38
2024/01/09 01:15:55;;;;;;;215.05;10.20;;;;;;;20.35;48.72;101205.78;7293164;19;130440;-37
2024/01/09 01:18:20;;;;;;;285.50;12.38;;;;;;;20.30;49.65;101199.97;7296791;19;129592;-38
2024/01/09 01:20:46;;;;;;;222.45;10.27;;;;;;;20.27;49.73;101195.81;7293462;19;130129;-40
2024/01/09 01:23:11;;;;;;;184.32;8.65;;;;;;;20.30;48.80;101210.44;7295975;19;131569;-42
2024/01/09 01:25:37;;;;;;;240.80;11.23;;;;;;;20.18;48.50;101179.84;7293883;19;131317;-35
2024/01/09 01:28:03;;;;;;;182.77;9.30;;;;;;;20.35;48.92;101201.41;7295811;19;129090;-40
2024/01/09 01:30:28;;;;;;;271.48;12.15;;;;;;;20.29;49.25;101193.94;7293989;19;129533;-40
2024/01/09 01:32:54;;;;;;;261.30;12.70;;;;;;;20.35;48.85;101208.38;7296073;19;131120;-41
2024/01/09 01:35:19;;;;;;;235.30;11.00;;;;;;;20.36;48.54;101210.09;7295168;19;130645;-35
2024/01/09 01:37:44;;;;;;;210.18;10.30;;;;;;;20.34;49.20;101204.09;7296016;19;131224;-37
2024/01/09 01:40:10;;;;;;;168.77;8.38;;;;;;;20.32;49.22;101203.34;7295683;19;129631;-42
2024/01/09 01:42:36;;;;;;;191.90;9.50;;;;;;;20.34;48.97;101206.72;7293030;19;131312;-41
2024/01/09 01:45:01;;;;;;;215.10;10.33;;;;;;;20.37;48.96;101198.69;7293510;19;131389;-37
2024/01/09 01:47:27;;;;;;;197.25;9.57;;;;;;;20.32;48.99;101198.97;7288694;19;129412;-37
2024/01/09 01:49:53;;;;;;;239.70;11.23;;;;;;;20.19;49.41;101197.19;7290235;19;129981;-40
2024/01/09 01:52:19;;;;;;;222.88;10.15;;;;;;;20.23;49.28;101190.88;7294170;19;131028;-40
2024/01/09 01:54:45;;;;;;;188.80;8.90;;;;;;;20.27;48.83;101195.81;7292889;19;130494;-38
2024/01/09 01:57:11;;;;;;;180.50;9.00;;;;;;;20.13;49.39;101197.53;7292841;19;129763;-39
2024/01/09 01:59:40;;;;;;;221.83;10.50;;;;;;;20.18;49.89;101185.06;7295939;19;129924;-39
2024/01/09 02:02:06;;;;;;;224.88;10.77;;;;;;;20.23;48.76;101183.03;7293927;19;131120;-40
2024/01/09 02:04:32;;;;;;;275.30;12.48;;;;;;;20.26;49.46;101188.06;7294271;19;130220;-39
2024/01/09 02:06:58;;;;;;;208.38;9.60;;;;;;;20.25;48.97;101186.38;7292322;19;131222;-35
2024/01/09 02:09:24;;;;;;;109.75;6.63;;;;;;;20.25;49.30;101175.91;7293820;19;131016;-40
2024/01/09 02:11:50;;;;;;;236.82;11.27;;;;;;;20.30;48.57;101173.88;7294907;19;132168;-40
2024/01/09 02:14:15;;;;;;;282.20;12.73;;;;;;;20.29;48.96;101169.59;7291769;19;130795;-39
2024/01/09 02:16:41;;;;;;;214.05;10.15;;;;;;;20.30;48.75;101168.66;7292276;19;131236;-39
2024/01/09 02:19:06;;;;;;;256.33;12.23;;;;;;;20.20;48.65;101146.63;7294748;19;129555;-39
2024/01/09 02:21:33;;;;;;;233.20;11.15;;;;;;;20.12;49.16;101135.78;7294645;19;130113;-36
2024/01/09 02:23:58;;;;;;;278.30;12.93;;;;;;;20.32;49.08;101169.41;7292745;19;130565;-36
2024/01/09 02:26:33;;;;;;;164.30;8.40;;;;;;;20.27;49.10;101164.47;7292281;19;130430;-37
2024/01/09 02:29:05;;;;;;;220.88;10.77;;;;;;;20.33;49.17;101171.06;7289744;19;130060;-42
2024/01/09 02:31:31;;;;;;;220.77;10.93;;;;;;;20.32;49.38;101170.25;7292630;19;130361;-37
2024/01/09 02:33:57;;;;;;;194.88;9.50;;;;;;;20.23;49.19;101162.13;7291416;19;130344;-40
2024/01/09 02:36:23;;;;;;;189.27;8.87;;;;;;;20.21;49.22;101167.41;7294624;19;130570;-40
2024/01/09 02:38:48;;;;;;;219.10;10.20;;;;;;;20.13;49.91;101153.16;7290511;19;130906;-38
2024/01/09 02:41:13;;;;;;;147.75;7.55;;;;;;;20.24;49.12;101174.25;7292458;19;129732;-36
2024/01/09 02:43:39;;;;;;;207.85;10.00;;;;;;;20.28;48.77;101168.75;7290681;19;131666;-39
2024/01/09 02:46:04;;;;;;;253.18;11.93;;;;;;;20.23;49.40;101167.38;7291861;19;131347;-40
2024/01/09 02:48:29;;;;;;;216.40;10.55;;;;;;;20.13;49.35;101151.34;7288849;19;129536;-41
2024/01/09 02:50:55;;;;;;;201.63;10.25;;;;;;;20.27;49.00;101174.91;7289235;19;131954;-40
2024/01/09 02:53:20;;;;;;;270.30;12.33;;;;;;;20.18;48.82;101153.75;7288612;19;133208;-39
2024/01/09 02:55:45;;;;;;;202.93;9.93;;;;;;;20.32;49.06;101170.25;7294224;19;130672;-37
2024/01/09 02:58:11;;;;;;;240.15;11.90;;;;;;;20.36;48.77;101173.53;7292961;19;132114;-40
2024/01/09 03:00:36;;;;;;;128.07;6.97;;;;;;;20.34;48.52;101172.75;7292938;19;131880;-38
2024/01/09 03:03:01;;;;;;;311.70;14.82;;;;;;;20.30;48.59;101166.03;7289375;19;130344;-38
2024/01/09 03:05:27;;;;;;;221.60;10.50;;;;;;;20.32;48.39;101169.41;7292523;19;130273;-37
2024/01/09 03:07:52;;;;;;;195.32;10.07;;;;;;;20.35;49.52;101166.59;7292190;19;131980;-39
2024/01/09 03:10:17;;;;;;;236.13;11.23;;;;;;;20.32;48.61;101166.78;7292249;19;130815;-41
2024/01/09 03:12:43;;;;;;;242.82;11.48;;;;;;;20.31;48.93;101165.13;7291082;19;130913;-38
2024/01/09 03:15:09;;;;;;;227.32;11.32;;;;;;;20.24;48.89;101155.97;7290548;19;130109;-39
2024/01/09 03:17:34;;;;;;;138.97;7.53;;;;;;;20.30;48.73;101163.41;7290527;19;131038;-39
2024/01/09 03:20:00;;;;;;;268.75;12.38;;;;;;;20.28;48.95;101160.09;7290179;19;130830;-38
2024/01/09 03:22:26;;;;;;;429.85;20.67;;;;;;;20.29;48.72;101165.22;7287035;19;130352;-38
2024/01/09 03:24:51;;;;;;;238.23;10.77;;;;;;;20.29;48.43;101159.13;7289220;19;130434;-39
2024/01/09 03:27:16;;;;;;;203.98;10.30;;;;;;;20.18;49.01;101158.97;7288460;19;129392;-38
2024/01/09 03:29:42;;;;;;;230.20;10.98;;;;;;;20.24;49.08;101169.03;7291049;19;130207;-38
2024/01/09 03:32:07;;;;;;;245.98;11.77;;;;;;;20.22;49.32;101163.91;7292051;19;131094;-39
2024/01/09 03:34:32;;;;;;;219.97;11.07;;;;;;;20.27;48.19;101169.69;7290618;19;130931;-39
2024/01/09 03:36:58;;;;;;;214.30;10.13;;;;;;;20.29;48.98;101164.38;7289214;19;130541;-39
2024/01/09 03:39:23;;;;;;;234.52;11.10;;;;;;;20.25;49.39;101174.16;7290780;19;129209;-39
2024/01/09 03:41:49;;;;;;;184.10;9.50;;;;;;;20.25;48.76;101181.13;7290577;19;130745;-39
2024/01/09 03:44:14;;;;;;;223.32;11.38;;;;;;;20.29;48.40;101174.81;7290828;19;129970;-38
2024/01/09 03:46:40;;;;;;;204.75;9.77;;;;;;;20.31;48.56;101175.56;7295130;19;131355;-39
2024/01/09 03:49:05;;;;;;;225.75;11.02;;;;;;;20.35;49.23;101174.44;7293866;19;131373;-39
2024/01/09 03:51:30;;;;;;;156.48;8.05;;;;;;;20.28;48.63;101171.34;7298366;19;130309;-38
2024/01/09 03:53:56;;;;;;;231.20;11.43;;;;;;;20.28;48.15;101167.91;7294858;19;130715;-39
2024/01/09 03:56:23;;;;;;;270.30;13.05;;;;;;;20.28;48.54;101165.31;7296528;19;130666;-39
2024/01/09 03:58:48;;;;;;;224.95;10.63;;;;;;;20.30;49.27;101163.41;7296919;19;130466;-39
2024/01/09 04:01:14;;;;;;;222.38;11.18;;;;;;;20.25;48.95;101162.84;7297458;19;130330;-42
2024/01/09 04:03:40;;;;;;;143.57;8.15;;;;;;;20.24;48.29;101172.50;7296362;19;129721;-38
2024/01/09 04:06:05;;;;;;;283.35;13.25;;;;;;;20.32;48.68;101162.41;7296151;19;129256;-39
2024/01/09 04:08:31;;;;;;;215.10;10.63;;;;;;;20.32;48.64;101166.78;7296139;19;130127;-39
2024/01/09 04:10:56;;;;;;;195.68;9.68;;;;;;;20.28;48.61;101154.88;7297377;19;133056;-39
2024/01/09 04:13:22;;;;;;;206.13;10.38;;;;;;;20.25;48.88;101160.25;7298042;19;130560;-38
2024/01/09 04:15:47;;;;;;;235.93;11.13;;;;;;;20.29;48.66;101159.13;7297047;19;129780;-39
2024/01/09 04:18:12;;;;;;;235.07;10.75;;;;;;;20.23;49.12;101162.13;7297891;19;131146;-38
2024/01/09 04:20:39;;;;;;;230.80;11.80;;;;;;;20.07;49.09;101143.91;7295425;19;130663;-39
2024/01/09 04:23:04;;;;;;;227.93;11.45;;;;;;;20.20;49.38;101172.75;7295492;19;129671;-39
2024/01/09 04:25:30;;;;;;;296.20;13.25;;;;;;;20.21;48.54;101180.47;7294606;19;129180;-42
2024/01/09 04:27:55;;;;;;;219.50;10.60;;;;;;;20.26;48.17;101178.44;7297894;19;130147;-40
2024/01/09 04:30:20;;;;;;;223.63;10.82;;;;;;;20.26;48.42;101182.84;7294947;19;130990;-37
2024/01/09 04:32:46;;;;;;;209.73;10.05;;;;;;;20.28;48.72;101180.97;7296921;19;130641;-39
2024/01/09 04:35:11;;;;;;;319.48;14.45;;;;;;;20.29;48.33;101177.44;7297333;19;133000;-40
2024/01/09 04:37:36;;;;;;;183.20;9.13;;;;;;;20.30;48.50;101181.69;7294592;19;129952;-41
2024/01/09 04:40:02;;;;;;;119.60;7.13;;;;;;;20.27;48.71;101190.56;7296772;19;129761;-37
2024/01/09 04:42:27;;;;;;;186.63;8.85;;;;;;;20.23;48.60;101177.81;7296074;19;130525;-38
2024/01/09 04:44:53;;;;;;;231.53;10.87;;;;;;;20.15;49.17;101177.41;7293362;19;130779;-36
2024/01/09 04:47:19;;;;;;;177.27;9.00;;;;;;;20.02;49.00;101158.16;7292509;19;129985;-41
2024/01/09 04:49:45;;;;;;;192.50;9.70;;;;;;;20.18;48.74;101178.06;7294212;19;130527;-40
2024/01/09 04:52:11;;;;;;;359.27;16.75;;;;;;;20.11;49.57;101188.94;7292139;19;131820;-39
2024/01/09 04:54:36;;;;;;;244.57;11.88;;;;;;;19.93;50.44;101179.59;7292977;19;130101;-37
2024/01/09 04:57:02;;;;;;;213.10;10.55;;;;;;;19.97;49.86;101191.50;7293180;19;130278;-40
2024/01/09 04:59:28;;;;;;;239.50;11.70;;;;;;;20.01;49.84;101195.63;7295814;19;131942;-40
2024/01/09 05:01:53;;;;;;;271.08;13.18;;;;;;;19.92;50.07;101201.38;7295335;19;130258;-37
2024/01/09 05:04:18;;;;;;;185.88;10.38;;;;;;;19.85;50.11;101198.28;7296403;19;129496;-36
2024/01/09 05:06:44;;;;;;;119.25;8.05;;;;;;;19.65;50.38;101174.31;7291049;19;130129;-41
2024/01/09 05:09:09;;;;;;;277.70;15.15;;;;;;;20.35;46.98;101200.56;7293026;19;130091;-41
2024/01/09 05:11:35;;;;;;;272.58;13.82;;;;;;;21.63;44.69;101182.75;7296378;19;131120;-38
2024/01/09 05:14:00;;;;;;;198.15;11.75;;;;;;;23.50;40.67;101195.75;7292574;19;129757;-35
2024/01/09 05:16:27;;;;;;;139.48;9.43;;;;;;;25.49;37.17;101195.84;7293248;19;129178;-37
2024/01/09 05:18:53;;;;;;;350.65;17.92;;;;;;;26.64;34.99;101181.56;7280237;19;131905;-40
2024/01/09 05:21:18;;;;;;;304.08;15.35;;;;;;;27.46;34.03;101181.19;7294245;19;129383;-37
2024/01/09 05:23:43;;;;;;;269.48;13.90;;;;;;;27.75;32.86;101154.75;7293593;19;129480;-37
2024/01/09 05:26:09;;;;;;;207.97;11.90;;;;;;;28.24;33.04;101182.75;7294177;19;130836;-38
2024/01/09 05:28:34;;;;;;;253.97;12.97;;;;;;;28.44;32.27;101164.03;7292748;19;129169;-41
2024/01/09 05:31:01;;;;;;;288.57;15.10;;;;;;;28.65;31.71;101188.47;7295034;19;129377;-40
2024/01/09 05:33:26;;;;;;;;;;;;;;;28.06;32.71;101185.31;7295335;19;128959;-37
2024/01/09 05:35:52;;;;;;;212.00;11.43;;;;;;;27.85;33.22;101187.28;7292614;19;130051;-40
2024/01/09 05:38:17;;;;;;;240.43;12.60;;;;;;;28.37;32.72;101188.56;7293008;19;130357;-41
2024/01/09 05:40:42;;;;;;;147.43;8.90;;;;;;;28.07;33.48;101197.56;7294897;19;129903;-39
2024/01/09 05:43:08;;;;;;;214.10;11.70;;;;;;;27.99;33.49;101197.44;7291313;19;129182;-38
2024/01/09 05:45:33;;;;;;;192.30;10.53;;;;;;;27.70;34.23;101194.00;7293828;19;131193;-39
2024/01/09 05:47:59;;;;;;;287.57;14.27;;;;;;;27.59;34.62;101197.59;7292296;19;130887;-38
2024/01/09 05:50:24;;;;;;;267.83;14.20;;;;;;;27.36;35.50;101206.78;7293838;19;132704;-42
2024/01/09 05:52:49;;;;;;;196.40;11.47;;;;;;;27.23;35.20;101205.34;7290130;19;130313;-41
2024/01/09 05:55:15;;;;;;;246.07;12.83;;;;;;;27.16;35.56;101220.06;7291368;19;130208;-36
2024/01/09 05:57:40;;;;;;;280.70;14.67;;;;;;;27.06;35.41;101213.91;7290011;19;130315;-37
2024/01/09 06:00:06;;;;;;;241.27;12.63;;;;;;;26.29;36.99;101208.34;7293454;19;130834;-41
2024/01/09 06:02:31;;;;;;;236.40;12.10;;;;;;;26.05;37.61;101220.16;7290484;19;130292;-40
2024/01/09 06:04:57;;;;;;;261.50;13.23;;;;;;;26.93;36.34;101215.03;7290047;19;131572;-41
2024/01/09 06:07:22;;;;;;;295.27;15.83;;;;;;;26.82;35.03;101219.56;7287511;19;133919;-39
2024/01/09 06:09:48;;;;;;;233.13;12.50;;;;;;;26.98;35.30;101226.97;7290542;19;130032;-37
2024/01/09 06:12:13;;;;;;;224.40;12.70;;;;;;;27.08;35.16;101217.25;7290835;19;131639;-39
2024/01/09 06:14:38;;;;;;;285.20;14.13;;;;;;;27.05;35.62;101191.97;7289757;19;130754;-39
2024/01/09 06:17:05;;;;;;;224.43;12.30;;;;;;;27.12;35.03;101211.59;7287293;19;132457;-38
2024/01/09 06:19:30;;;;;;;261.75;13.65;;;;;;;27.20;35.21;101209.09;7287898;19;129454;-39
2024/01/09 06:21:56;;;;;;;186.63;10.70;;;;;;;27.18;35.86;101223.41;7285841;19;129470;-39
2024/01/09 06:24:22;;;;;;;318.50;15.43;;;;;;;26.62;36.17;101220.44;7286524;19;130305;-39
2024/01/09 06:26:47;;;;;;;236.40;12.23;;;;;;;26.24;37.34;101214.97;7284488;19;130197;-39
2024/01/09 06:29:13;;;;;;;243.57;12.67;;;;;;;26.47;36.90;101213.84;7286794;19;130598;-37
2024/01/09 06:31:40;;;;;;;280.07;14.57;;;;;;;27.01;36.15;101216.97;7288057;19;133975;-39
2024/01/09 06:34:06;;;;;;;359.05;18.23;;;;;;;27.12;36.26;101216.03;7285567;19;130255;-39
2024/01/09 06:36:31;;;;;;;232.73;12.00;;;;;;;27.24;35.69;101220.22;7286680;19;132252;-39
2024/01/09 06:38:57;;;;;;;227.13;12.03;;;;;;;27.30;35.46;101217.91;7287808;19;129987;-39
2024/01/09 06:41:22;;;;;;;267.30;13.20;;;;;;;27.29;35.45;101215.41;7287312;19;131352;-39
2024/01/09 06:43:47;;;;;;;295.23;14.10;;;;;;;27.24;36.12;101207.03;7286860;19;130697;-39
2024/01/09 06:46:13;;;;;;;199.13;10.40;;;;;;;27.37;35.47;101212.91;7288616;19;131461;-39
2024/01/09 06:48:38;;;;;;;203.17;11.53;;;;;;;26.79;36.30;101199.53;7290041;19;130559;-38
2024/01/09 06:51:04;;;;;;;435.73;21.00;;;;;;;26.44;37.08;101211.47;7289119;19;131100;-39
2024/01/09 06:53:29;;;;;;;316.03;15.77;;;;;;;26.24;37.12;101210.53;7285800;19;130394;-39
2024/01/09 06:55:57;;;;;;;189.70;10.25;;;;;;;27.11;35.90;101216.97;7291197;19;130282;-39
2024/01/09 06:58:23;;;;;;;205.43;11.00;;;;;;;27.35;36.37;101215.69;7292432;19;129705;-39
2024/01/09 07:00:48;;;;;;;210.70;11.53;;;;;;;27.37;36.01;101212.91;7290674;19;129562;-39
2024/01/09 07:03:14;;;;;;;317.43;14.97;;;;;;;27.33;35.74;101211.50;7291756;19;130163;-39
2024/01/09 07:05:39;;;;;;;206.10;10.80;;;;;;;27.38;36.22;101204.84;7292339;19;130897;-39
2024/01/09 07:08:04;;;;;;;205.83;11.20;;;;;;;27.43;35.52;101217.63;7291921;19;130378;-39
2024/01/09 07:10:30;;;;;;;237.77;12.60;;;;;;;27.43;36.25;101213.19;7291054;19;130725;-39
2024/01/09 07:12:56;;;;;;;294.70;14.63;;;;;;;27.22;36.34;101217.69;7289426;19;130376;-39
2024/01/09 07:15:21;;;;;;;227.00;11.43;;;;;;;26.72;36.49;101216.06;7290632;19;130611;-39
2024/01/09 07:17:47;;;;;;;240.57;12.77;;;;;;;26.50;37.45;101222.34;7290519;19;132614;-39
2024/01/09 07:20:12;;;;;;;234.03;12.03;;;;;;;27.17;36.50;101221.75;7291814;19;129468;-38
2024/01/09 07:22:37;;;;;;;232.73;11.57;;;;;;;27.36;36.15;101224.44;7289680;19;132624;-39
2024/01/09 07:25:03;;;;;;;218.17;11.50;;;;;;;27.45;35.42;101219.16;7290732;19;130426;-39
2024/01/09 07:27:29;;;;;;;202.40;10.73;;;;;;;27.53;36.00;101229.03;7288413;19;130536;-39
2024/01/09 07:29:54;;;;;;;237.17;11.90;;;;;;;27.65;35.85;101227.94;7288690;19;130681;-39
2024/01/09 07:32:20;;;;;;;235.27;12.47;;;;;;;27.66;36.24;101235.72;7290966;19;130278;-39
2024/01/09 07:34:47;;;;;;;243.63;12.57;;;;;;;27.64;36.02;101231.53;7288954;19;131549;-39
2024/01/09 07:37:13;;;;;;;196.25;10.55;;;;;;;27.57;35.80;101233.91;7288365;19;130276;-39
2024/01/09 07:39:38;;;;;;;225.07;10.93;;;;;;;26.94;36.68;101235.16;7290740;19;130227;-39
2024/01/09 07:42:04;;;;;;;189.07;9.90;;;;;;;26.64;37.21;101236.97;7291273;19;129418;-39
2024/01/09 07:44:29;;;;;;;188.13;10.17;;;;;;;27.12;36.67;101240.63;7287408;19;131098;-39
2024/01/09 07:46:55;;;;;;;207.07;11.03;;;;;;;27.31;36.19;101218.72;7286653;19;129503;-38
2024/01/09 07:49:21;;;;;;;270.60;13.13;;;;;;;27.58;36.03;101242.66;7286514;19;130867;-39
2024/01/09 07:51:46;;;;;;;273.63;13.43;;;;;;;27.66;35.53;101235.72;7291751;19;131953;-39
2024/01/09 07:54:12;;;;;;;207.47;10.87;;;;;;;27.75;35.79;101244.63;7288682;19;131088;-39
2024/01/09 07:56:37;;;;;;;237.80;11.73;;;;;;;27.65;35.82;101243.78;7284921;19;131350;-39
2024/01/09 07:59:03;;;;;;;178.63;9.77;;;;;;;27.73;36.20;101242.09;7288929;19;130961;-39
2024/01/09 08:01:30;;;;;;;249.57;12.13;;;;;;;27.68;36.07;101236.41;7289760;19;130229;-39
2024/01/09 08:03:55;;;;;;;198.15;10.18;;;;;;;27.07;37.04;101244.66;7291034;19;131969;-39
2024/01/09 08:06:20;;;;;;;223.03;11.53;;;;;;;26.82;37.45;101243.31;7286979;19;129883;-39
2024/01/09 08:08:46;;;;;;;278.67;13.30;;;;;;;27.32;36.46;101241.53;7287631;19;130700;-39
2024/01/09 08:11:11;;;;;;;126.03;7.27;;;;;;;27.65;36.49;101241.16;7289504;19;130179;-40
2024/01/09 08:13:37;;;;;;;211.00;11.30;;;;;;;27.67;35.86;101244.47;7288379;19;129767;-39
2024/01/09 08:16:03;;;;;;;242.90;12.20;;;;;;;27.84;35.85;101243.78;7290073;19;132365;-38
2024/01/09 08:18:29;;;;;;;229.20;11.10;;;;;;;27.83;35.77;101252.69;7287834;19;129246;-39
2024/01/09 08:20:54;;;;;;;221.15;11.43;;;;;;;27.86;35.75;101250.59;7288147;19;130910;-39
2024/01/09 08:23:19;;;;;;;199.67;9.93;;;;;;;27.81;36.04;101246.69;7288921;19;130401;-39
2024/01/09 08:25:45;;;;;;;216.40;10.97;;;;;;;27.64;35.94;101239.47;7288768;19;130031;-39
2024/01/09 08:28:11;;;;;;;231.80;11.67;;;;;;;27.21;36.72;101254.81;7288697;19;130315;-38
2024/01/09 08:30:36;;;;;;;159.77;9.00;;;;;;;26.96;37.70;101260.59;7289797;19;130312;-39
2024/01/09 08:33:02;;;;;;;258.40;12.90;;;;;;;27.24;36.03;101257.19;7296540;19;131436;-39
2024/01/09 08:35:27;;;;;;;327.57;17.77;;;;;;;27.04;32.31;101250.19;7292556;19;130074;-39
2024/01/09 08:37:53;;;;;;;198.90;12.00;;;;;;;27.52;33.86;101248.50;7297186;19;132378;-41
2024/01/09 08:40:18;;;;;;;251.90;14.57;;;;;;;27.80;34.13;101252.97;7295370;19;130268;-38
2024/01/09 08:42:44;;;;;;;188.20;11.73;;;;;;;27.62;35.00;101249.31;7292331;19;131029;-41
2024/01/09 08:45:09;;;;;;;308.50;16.00;;;;;;;27.36;36.20;101256.13;7295000;19;130783;-38
2024/01/09 08:47:35;;;;;;;225.23;13.33;;;;;;;27.25;36.59;101256.22;7294187;19;131945;-40
2024/01/09 08:50:02;;;;;;;194.23;12.47;;;;;;;26.96;37.00;101252.69;7292660;19;130557;-39
2024/01/09 08:52:27;;;;;;;306.92;16.10;;;;;;;26.73;38.10;101255.50;7293946;19;130420;-41
2024/01/09 08:54:53;;;;;;;258.63;14.13;;;;;;;26.45;38.88;101261.47;7294621;19;129123;-37
2024/01/09 08:57:19;;;;;;;138.43;9.43;;;;;;;26.16;39.21;101260.47;7294761;19;131576;-39
2024/01/09 08:59:44;;;;;;;280.35;14.85;;;;;;;26.02;39.49;101267.81;7293486;19;130177;-41
2024/01/09 09:02:10;;;;;;;206.63;12.10;;;;;;;25.74;40.25;101253.44;7295045;19;130946;-39
2024/01/09 09:04:35;;;;;;;278.77;15.47;;;;;;;25.59;41.30;101265.22;7293797;19;131031;-35
2024/01/09 09:07:01;;;;;;;182.17;11.63;;;;;;;25.40;41.83;101271.16;7293298;19;129929;-35
2024/01/09 09:09:27;;;;;;;160.10;10.20;;;;;;;25.19;41.86;101267.59;7292858;19;130298;-40
2024/01/09 09:11:52;;;;;;;309.37;16.47;;;;;;;25.01;42.14;101268.19;7294002;19;130430;-40
2024/01/09 09:14:17;;;;;;;250.80;13.60;;;;;;;24.80;42.67;101259.38;7294275;19;129355;-38
2024/01/09 09:16:43;;;;;;;219.93;12.03;;;;;;;24.63;43.18;101273.78;7290882;19;131086;-40
2024/01/09 09:19:09;;;;;;;202.63;12.03;;;;;;;24.48;44.20;101271.53;7293704;19;130274;-40
2024/01/09 09:21:34;;;;;;;268.63;14.50;;;;;;;24.34;44.62;101272.59;7293810;19;130750;-39
2024/01/09 09:24:00;;;;;;;238.93;13.47;;;;;;;24.16;45.30;101263.47;7295782;19;132559;-41
2024/01/09 09:26:26;;;;;;;203.80;12.13;;;;;;;23.97;44.82;101269.22;7293429;19;129681;-36
2024/01/09 09:28:51;;;;;;;141.60;9.55;;;;;;;23.86;45.10;101269.19;7292664;19;130216;-40
2024/01/09 09:31:17;;;;;;;299.63;15.87;;;;;;;23.77;46.11;101261.97;7293815;19;130601;-40
2024/01/09 09:33:42;;;;;;;224.98;12.75;;;;;;;23.63;46.13;101264.78;7295603;19;132334;-38
2024/01/09 09:36:08;;;;;;;218.23;12.60;;;;;;;23.46;46.61;101261.69;7293142;19;129815;-37
2024/01/09 09:38:34;;;;;;;166.90;10.00;;;;;;;23.37;47.17;101268.44;7292864;19;131732;-38
2024/01/09 09:41:15;;;;;;;297.80;15.60;;;;;;;23.26;47.34;101268.38;7294371;19;130468;-40
2024/01/09 09:43:48;;;;;;;283.30;15.27;;;;;;;23.20;46.90;101263.56;7292361;19;131581;-39
2024/01/09 09:46:25;;;;;;;166.82;10.98;;;;;;;23.13;47.53;101259.69;7293695;19;129462;-41
2024/01/09 09:48:53;;;;;;;192.85;11.32;;;;;;;23.07;47.83;101265.38;7293899;19;131046;-37
2024/01/09 09:51:18;;;;;;;154.30;9.55;;;;;;;22.99;47.69;101265.09;7292628;19;130630;-38
2024/01/09 09:53:44;;;;;;;280.83;14.03;;;;;;;22.92;48.25;101253.34;7293146;19;129564;-39
2024/01/09 09:56:12;;;;;;;197.83;11.33;;;;;;;22.82;48.94;101254.94;7294017;19;129646;-37
2024/01/09 09:58:38;;;;;;;225.55;12.25;;;;;;;22.77;48.68;101254.41;7294628;19;130244;-41
2024/01/09 10:01:07;;;;;;;208.00;11.33;;;;;;;22.71;48.95;101242.56;7290430;19;130298;-37
2024/01/09 10:03:35;;;;;;;254.70;14.10;;;;;;;22.65;49.24;101243.00;7293361;19;129703;-41
2024/01/09 10:06:06;;;;;;;175.30;10.40;;;;;;;22.58;48.66;101246.13;7293999;19;130581;-39
2024/01/09 10:08:34;;;;;;;164.00;10.15;;;;;;;22.47;49.04;101227.66;7292863;19;130278;-38
2024/01/09 10:11:00;;;;;;;201.88;11.43;;;;;;;22.55;49.16;101230.63;7289572;19;130671;-36
2024/01/09 10:13:25;;;;;;;254.10;12.83;;;;;;;22.55;49.82;101236.72;7290779;19;129766;-42
2024/01/09 10:15:58;;;;;;;273.00;13.75;;;;;;;22.68;49.57;101231.44;7292508;19;129064;-38
2024/01/09 10:18:28;;;;;;;227.20;12.40;;;;;;;22.62;49.60;101232.75;7294688;19;129709;-39
2024/01/09 10:20:53;;;;;;;202.32;11.13;;;;;;;22.55;49.36;101223.63;7292151;19;131343;-38
2024/01/09 10:23:20;;;;;;;218.60;12.70;;;;;;;22.50;48.20;101212.56;7291314;19;130813;-37
2024/01/09 10:25:45;;;;;;;321.90;18.45;;;;;;;22.37;42.80;101218.75;7290717;19;129309;-41
2024/01/09 10:28:17;;;;;;;216.53;14.07;;;;;;;22.14;42.57;101195.91;7294249;19;131016;-38
2024/01/09 10:30:43;;;;;;;259.80;15.80;;;;;;;22.17;43.33;101214.88;7291752;19;131206;-35
2024/01/09 10:33:14;;;;;;;230.10;14.67;;;;;;;22.35;43.45;101213.63;7291560;19;129430;-38
2024/01/09 10:35:41;;;;;;;239.02;14.48;;;;;;;22.50;42.61;101209.09;7289844;19;129732;-42
2024/01/09 10:38:08;;;;;;;212.82;13.43;;;;;;;22.99;42.24;101205.59;7290886;19;130989;-35
2024/01/09 10:40:34;;;;;;;201.80;13.57;;;;;;;23.68;40.73;101218.03;7291888;19;131556;-40
2024/01/09 10:43:00;;;;;;;295.63;16.63;;;;;;;24.75;37.87;101203.66;7291920;19;130104;-42
2024/01/09 10:45:27;;;;;;;;;;;;;;;25.15;36.91;101181.94;7290190;19;130022;-37
2024/01/09 10:47:55;;;;;;;228.18;14.48;;;;;;;26.70;34.63;101203.00;7292239;19;129351;-39
2024/01/09 10:50:21;;;;;;;232.23;14.27;;;;;;;27.43;32.97;101196.50;7289002;19;132551;-38